createdAt,value
2022-08-05T00:09:12.715Z,40
2022-08-05T00:18:35.919Z,48
2022-08-05T00:26:57.318Z,17
2022-08-05T00:37:09.536Z,23
2022-08-05T00:45:46.258Z,7
2022-08-05T00:55:34.268Z,33
2022-08-05T01:04:13.987Z,25
2022-08-05T01:12:54.305Z,4
2022-08-05T01:21:44.963Z,21
2022-08-05T01:30:34.442Z,31
2022-08-05T01:39:00.325Z,35
2022-08-05T01:47:15.413Z,20
2022-08-05T01:55:41.307Z,60
2022-08-05T02:05:18.974Z,19
2022-08-05T02:13:23.857Z,16
2022-08-05T02:22:26.015Z,31
2022-08-05T02:30:51.623Z,54
2022-08-05T02:39:01.733Z,20
2022-08-05T02:47:02.403Z,26
2022-08-05T02:55:52.248Z,37
2022-08-05T03:04:38.376Z,20
2022-08-05T03:19:03.469Z,23
2022-08-05T03:27:57.792Z,28
2022-08-05T03:37:02.558Z,37
2022-08-05T03:45:57.504Z,45
2022-08-05T03:58:15.917Z,68
2022-08-05T04:06:25.747Z,27
2022-08-05T04:15:06.340Z,33
2022-08-05T04:23:58.450Z,47
2022-08-05T04:32:30.931Z,95
2022-08-05T04:42:12.117Z,33
2022-08-05T04:50:37.463Z,52
2022-08-05T04:59:58.993Z,63
2022-08-05T05:09:05.576Z,22
2022-08-05T05:17:09.392Z,80
2022-08-05T05:26:13.185Z,50
2022-08-05T05:37:29.243Z,80
2022-08-05T05:46:21.865Z,48
2022-08-05T05:55:23.420Z,52
2022-08-05T06:04:14.411Z,67
2022-08-05T06:12:36.162Z,32
2022-08-05T06:21:37.308Z,54
2022-08-05T06:31:57.193Z,71
2022-08-05T06:42:22.420Z,73
2022-08-05T06:52:37.570Z,55
2022-08-05T07:01:47.027Z,75
2022-08-05T07:10:07.732Z,54
2022-08-05T07:21:28.827Z,109
2022-08-05T07:31:54.833Z,53
2022-08-05T07:42:52.887Z,42
2022-08-05T07:52:10.052Z,49
2022-08-05T08:03:14.494Z,18
2022-08-05T08:11:27.368Z,41
2022-08-05T08:21:59.803Z,51
2022-08-05T08:32:02.141Z,69
2022-08-05T08:40:25.677Z,55
2022-08-05T08:53:28.840Z,90
2022-08-05T09:02:46.755Z,100
2022-08-05T09:11:06.853Z,84
2022-08-05T09:21:21.309Z,112
2022-08-05T09:32:42.558Z,48
2022-08-05T09:42:17.673Z,77
2022-08-05T09:51:15.946Z,55
2022-08-05T10:00:12.356Z,53
2022-08-05T10:10:04.104Z,87
2022-08-05T10:20:03.462Z,33
2022-08-05T10:30:07.394Z,48
2022-08-05T10:40:39.116Z,52
2022-08-05T10:50:32.775Z,30
2022-08-05T11:00:01.398Z,13
2022-08-05T11:09:16.553Z,30
2022-08-05T11:18:36.686Z,9
2022-08-05T11:29:14.576Z,20
2022-08-05T11:39:05.934Z,25
2022-08-05T11:50:08.313Z,29
2022-08-05T11:58:43.181Z,53
2022-08-05T12:07:05.689Z,41
2022-08-05T12:16:14.349Z,30
2022-08-05T12:25:37.985Z,46
2022-08-05T12:34:03.184Z,24
2022-08-05T12:41:47.143Z,21
2022-08-05T12:50:39.406Z,56
2022-08-05T13:03:07.545Z,43
2022-08-05T13:11:59.919Z,28
2022-08-05T13:21:03.871Z,31
2022-08-05T13:30:33.347Z,29
2022-08-05T13:40:51.613Z,30
2022-08-05T13:50:11.414Z,28
2022-08-05T13:59:05.927Z,48
2022-08-05T14:08:32.453Z,32
2022-08-05T14:18:03.836Z,7
2022-08-05T14:26:56.529Z,26
2022-08-05T14:36:25.933Z,21
2022-08-05T14:46:05.308Z,2
2022-08-05T14:55:07.569Z,2
2022-08-05T15:04:16.735Z,2
2022-08-05T15:14:34.078Z,0
2022-08-05T15:22:44.694Z,0
2022-08-05T15:30:53.626Z,0
2022-08-05T15:42:55.015Z,0
2022-08-05T15:51:11.005Z,2
2022-08-05T16:00:56.905Z,0
2022-08-05T16:09:11.040Z,0
2022-08-05T16:17:05.069Z,2
2022-08-05T16:25:26.858Z,7
2022-08-05T16:34:24.157Z,4
2022-08-05T16:50:58.412Z,0
2022-08-05T16:59:49.558Z,7
2022-08-05T17:07:39.411Z,11
2022-08-05T17:16:36.326Z,12
2022-08-05T17:24:42.384Z,0
2022-08-05T17:33:03.701Z,9
2022-08-05T17:42:17.029Z,2
2022-08-05T17:50:35.619Z,4
2022-08-05T17:57:55.518Z,0
2022-08-05T18:06:34.499Z,2
2022-08-05T18:14:20.335Z,0
2022-08-05T18:22:46.350Z,0
2022-08-05T18:38:13.607Z,0
2022-08-05T18:48:06.429Z,4
2022-08-05T18:56:58.609Z,2
2022-08-05T19:06:51.066Z,35
2022-08-05T19:15:58.620Z,2
2022-08-05T19:24:37.480Z,0
2022-08-05T19:32:45.419Z,0
2022-08-05T19:41:06.656Z,0
2022-08-05T19:50:30.034Z,7
2022-08-05T20:01:01.087Z,11
2022-08-05T20:09:06.350Z,36
2022-08-05T20:17:10.542Z,44
2022-08-05T20:25:00.418Z,13
2022-08-05T20:32:56.166Z,14
2022-08-05T20:41:04.560Z,37
2022-08-05T20:49:24.285Z,4
2022-08-05T20:58:51.927Z,9
2022-08-05T21:07:02.774Z,4
2022-08-05T21:16:19.509Z,4
2022-08-05T21:24:15.285Z,9
2022-08-05T21:32:19.960Z,6
2022-08-05T21:40:29.127Z,11
2022-08-05T21:49:48.818Z,5
2022-08-05T22:00:37.065Z,0
2022-08-05T22:09:45.650Z,2
2022-08-05T22:19:15.026Z,10
2022-08-05T22:29:18.958Z,0
2022-08-05T22:37:58.385Z,14
2022-08-05T22:46:12.452Z,2
2022-08-05T22:55:01.055Z,0
2022-08-05T23:04:32.308Z,0
2022-08-05T23:12:39.381Z,2
2022-08-05T23:20:37.157Z,2
2022-08-05T23:28:30.834Z,4
2022-08-05T23:36:48.651Z,6
2022-08-05T23:45:14.029Z,2
2022-08-05T23:53:03.320Z,0
